Fort Covington, NY (12937)

11:22 PM EDT on April 25, 2015 (GMT -0400)
Perry Hill | | Change Station
CLOSE
Current Station
Personal Weather Station
Location: North Bangor, NY
Elevation: 1053 ft
Nearby Weather Stations

Elev 1053 ft 44.83 °N, 74.38 °W | Updated 3 minutes ago

Overcast
Overcast
40.1 °F
Feels Like 40 °F
N
0.0
Wind Variable Wind from West

Today
High -- | Low -- °F
--% Chance of Precip.
Yesterday
High -- | Low -- °F
Precip. -- in
5:57 AM 7:55 PM
First Quarter, 51% visible
Pressure 29.79 in
Visibility 10.0 miles
Clouds Overcast 6000 ft
Windchill 40 °F
Dew Point 31 °F
Humidity 70%
Rainfall 0.13 in
Snow Depth Not available.
UV 0 out of 12
Pollen 5.60 out of 12
Air Quality Not available.
Flu Activity Widespread
METAR KMSS 260253Z AUTO 30003KT 10SM OVC060 08/00 A2978 RMK AO2 SLP087 T00830000 55001

More Conditions Fewer Conditions

Pressure 29.79 in
Visibility 10.0 miles
Clouds Overcast 6000 ft
Windchill 40 °F
Dew Point 31 °F
Humidity 70%
Rainfall 0.13 in
Snow Depth Not available.
UV 0 out of 12
Pollen 5.60 out of 12
Air Quality Not available.
Flu Activity Widespread
METAR KMSS 260253Z AUTO 30003KT 10SM OVC060 08/00 A2978 RMK AO2 SLP087 T00830000 55001

More Conditions Fewer Conditions

The full scope of the disaster following a powerful 7.8-magnitude earthquake in Nepal may not come into view for days, but global charities are already sending emergency aid. Click to see how you can help.

10-Day Weather Forecast

Almanac

Astronomy

Apr. 25, 2015 Rise Set
Actual Time
Civil Twilight
Nautical Twilight
Astronomical Twilight
Moon
Length of Visible Light
Length of Day
Tomorrow will be .
, % of the Moon is Illuminated

Today's Extremes

State Highs State Lows

Community

WunderPhotos

Upload Photos

1,816,918 photos uploaded!

WunderBlogs® & News

Nearby

Air Quality

  Air Quality AQ Index Pollutant
Not available.

Snow Depth

Station Depth Elevation

Earthquake Activity

City Distance Mag. Time & Date
Minimum magnitude displayed is 2.5.

Coastal Water Temperatures

Place Temperature

Stations

Nearby Weather Stations

Station Location Temp. Windchill Dew Point Humidity Wind Precip. Elev Updated Type